createdAt,value
2023-02-02T00:00:24.619Z,10.36
2023-02-02T00:02:51.395Z,10.57
2023-02-02T00:05:18.122Z,9.82
2023-02-02T00:07:44.750Z,10.12
2023-02-02T00:10:11.522Z,9.95
2023-02-02T00:12:38.193Z,10.38
2023-02-02T00:15:05.233Z,10.43
2023-02-02T00:17:31.988Z,10.44
2023-02-02T00:19:58.631Z,10.04
2023-02-02T00:22:25.344Z,9.81
2023-02-02T00:24:51.946Z,9.78
2023-02-02T00:27:18.555Z,10.00
2023-02-02T00:29:45.697Z,10.17
2023-02-02T00:32:12.355Z,10.26
2023-02-02T00:34:38.970Z,10.25
2023-02-02T00:37:05.663Z,10.30
2023-02-02T00:39:33.503Z,10.47
2023-02-02T00:42:00.535Z,10.21
2023-02-02T00:44:46.107Z,10.47
2023-02-02T00:47:12.820Z,10.19
2023-02-02T00:49:39.496Z,10.44
2023-02-02T00:52:06.216Z,10.12
2023-02-02T00:54:32.861Z,10.44
2023-02-02T00:56:59.558Z,10.64
2023-02-02T00:59:26.240Z,10.61
2023-02-02T01:01:52.928Z,10.61
2023-02-02T01:04:19.637Z,10.65
2023-02-02T01:06:46.388Z,10.42
2023-02-02T01:09:13.158Z,10.11
2023-02-02T01:11:39.870Z,10.37
2023-02-02T01:14:07.262Z,10.09
2023-02-02T01:16:34.441Z,10.25
2023-02-02T01:19:01.274Z,9.88
2023-02-02T01:21:28.639Z,10.45
2023-02-02T01:23:55.199Z,10.39
2023-02-02T01:26:21.917Z,10.44
2023-02-02T01:28:48.733Z,10.69
2023-02-02T01:31:18.809Z,10.18
2023-02-02T01:33:47.392Z,10.06
2023-02-02T01:36:17.569Z,10.09
2023-02-02T01:38:44.520Z,10.22
2023-02-02T01:41:17.293Z,10.17
2023-02-02T01:43:46.771Z,10.03
2023-02-02T01:46:36.086Z,9.91
2023-02-02T01:49:14.512Z,9.91
2023-02-02T01:51:58.858Z,9.86
2023-02-02T01:54:30.446Z,9.82
2023-02-02T01:57:02.732Z,9.51
2023-02-02T01:59:30.781Z,10.15
2023-02-02T02:01:58.923Z,9.91
2023-02-02T02:04:27.603Z,9.80
2023-02-02T02:06:54.460Z,9.59
2023-02-02T02:09:21.327Z,9.62
2023-02-02T02:11:48.059Z,10.07
2023-02-02T02:14:34.857Z,10.05
2023-02-02T02:17:15.687Z,10.26
2023-02-02T02:20:41.583Z,9.91
2023-02-02T02:23:54.651Z,9.57
2023-02-02T02:26:52.464Z,9.87
2023-02-02T02:29:38.548Z,9.87
2023-02-02T02:32:27.324Z,9.63
2023-02-02T02:35:13.964Z,10.00
2023-02-02T02:37:54.629Z,10.27
2023-02-02T02:40:40.161Z,9.71
2023-02-02T02:43:18.648Z,9.97
2023-02-02T02:45:46.204Z,9.76
2023-02-02T02:48:14.776Z,9.80
2023-02-02T02:50:41.445Z,9.56
2023-02-02T02:53:37.143Z,9.93
2023-02-02T02:56:33.369Z,9.96
2023-02-02T02:59:10.778Z,9.66
2023-02-02T03:01:55.848Z,9.57
2023-02-02T03:04:25.245Z,9.95
2023-02-02T03:07:01.403Z,9.41
2023-02-02T03:09:35.084Z,10.21
2023-02-02T03:12:03.473Z,9.89
2023-02-02T03:14:35.068Z,10.08
2023-02-02T03:17:02.658Z,9.59
2023-02-02T03:19:29.284Z,9.93
2023-02-02T03:21:55.918Z,9.86
2023-02-02T03:24:22.506Z,9.98
2023-02-02T03:26:49.619Z,9.64
2023-02-02T03:29:16.949Z,9.67
2023-02-02T03:31:43.779Z,9.74
2023-02-02T03:34:10.424Z,9.48
2023-02-02T03:36:37.043Z,9.61
2023-02-02T03:39:03.846Z,9.60
2023-02-02T03:41:30.526Z,9.89
2023-02-02T03:43:57.220Z,9.75
2023-02-02T03:46:23.911Z,9.78
2023-02-02T03:48:50.578Z,9.86
2023-02-02T03:51:17.377Z,10.13
2023-02-02T03:53:50.006Z,9.56
2023-02-02T03:56:16.884Z,9.50
2023-02-02T03:58:43.578Z,9.85
2023-02-02T04:01:12.992Z,9.62
2023-02-02T04:03:39.648Z,9.82
2023-02-02T04:06:06.545Z,9.55
2023-02-02T04:08:34.120Z,9.47
2023-02-02T04:11:01.032Z,9.60
2023-02-02T04:13:27.887Z,9.57
2023-02-02T04:15:59.716Z,9.66
2023-02-02T04:18:27.126Z,9.53
2023-02-02T04:20:58.333Z,9.58
2023-02-02T04:23:25.644Z,9.68
2023-02-02T04:25:52.635Z,9.73
2023-02-02T04:28:19.849Z,9.93
2023-02-02T04:30:46.709Z,10.02
2023-02-02T04:33:13.419Z,9.81
2023-02-02T04:35:40.045Z,9.84
2023-02-02T04:38:07.267Z,10.10
2023-02-02T04:40:34.093Z,9.91
2023-02-02T04:43:00.723Z,10.13
2023-02-02T04:45:27.710Z,9.89
2023-02-02T04:47:54.497Z,9.82
2023-02-02T04:50:21.286Z,10.13
2023-02-02T04:52:48.010Z,9.67
2023-02-02T04:55:14.961Z,9.75
2023-02-02T04:57:43.580Z,9.78
2023-02-02T05:00:14.391Z,9.77
2023-02-02T05:02:41.960Z,9.81
2023-02-02T05:05:11.798Z,9.44
2023-02-02T05:07:40.259Z,9.70
2023-02-02T05:10:08.003Z,9.79
2023-02-02T05:12:34.656Z,9.85
2023-02-02T05:15:03.399Z,9.78
2023-02-02T05:17:30.282Z,9.58
2023-02-02T05:19:57.540Z,9.62
2023-02-02T05:22:24.282Z,9.60
2023-02-02T05:24:50.960Z,9.52
2023-02-02T05:27:17.639Z,10.02
2023-02-02T05:29:44.276Z,9.45
2023-02-02T05:32:10.958Z,9.87
2023-02-02T05:34:37.597Z,9.57
2023-02-02T05:37:04.211Z,10.00
2023-02-02T05:39:30.818Z,10.02
2023-02-02T05:41:57.437Z,10.13
2023-02-02T05:44:24.099Z,9.43
2023-02-02T05:46:50.747Z,9.59
2023-02-02T05:49:17.397Z,9.80
2023-02-02T05:51:48.574Z,9.74
2023-02-02T05:54:19.411Z,9.73
2023-02-02T05:56:51.739Z,9.57
2023-02-02T05:59:19.169Z,9.55
2023-02-02T06:01:47.042Z,9.95
2023-02-02T06:04:15.044Z,9.70
2023-02-02T06:06:42.266Z,9.74
2023-02-02T06:09:10.498Z,9.74
2023-02-02T06:11:37.252Z,9.63
2023-02-02T06:14:03.870Z,9.40
2023-02-02T06:16:30.988Z,9.36
2023-02-02T06:18:57.666Z,9.22
2023-02-02T06:21:24.794Z,9.65
2023-02-02T06:23:52.034Z,9.21
2023-02-02T06:26:19.219Z,9.54
2023-02-02T06:28:50.606Z,9.57
2023-02-02T06:31:19.466Z,9.76
2023-02-02T06:33:54.730Z,9.51
2023-02-02T06:36:21.806Z,9.49
2023-02-02T06:38:52.645Z,9.04
2023-02-02T06:41:20.578Z,9.31
2023-02-02T06:43:47.865Z,9.21
2023-02-02T06:46:15.015Z,9.14
2023-02-02T06:48:41.748Z,9.05
2023-02-02T06:51:08.798Z,9.48
2023-02-02T06:53:35.476Z,9.50
2023-02-02T06:56:05.042Z,9.38
2023-02-02T06:58:32.841Z,9.24
2023-02-02T07:01:08.323Z,8.89
2023-02-02T07:03:35.422Z,9.07
2023-02-02T07:06:20.593Z,8.96
2023-02-02T07:08:59.663Z,9.17
2023-02-02T07:11:37.224Z,8.94
2023-02-02T07:14:05.796Z,9.15
2023-02-02T07:16:32.842Z,9.30
2023-02-02T07:18:59.486Z,9.02
2023-02-02T07:21:35.526Z,9.13
2023-02-02T07:24:03.378Z,9.11
2023-02-02T07:26:30.194Z,9.08
2023-02-02T07:28:56.865Z,9.10
2023-02-02T07:31:26.449Z,9.11
2023-02-02T07:33:54.400Z,9.14
2023-02-02T07:36:24.015Z,9.00
2023-02-02T07:38:54.297Z,9.14
2023-02-02T07:41:21.759Z,9.32
2023-02-02T07:43:49.848Z,9.36
2023-02-02T07:46:17.685Z,9.38
2023-02-02T07:48:44.468Z,9.63
2023-02-02T07:51:17.021Z,9.06
2023-02-02T07:53:45.950Z,8.89
2023-02-02T07:56:15.614Z,9.27
2023-02-02T07:58:43.151Z,9.20
2023-02-02T08:01:12.285Z,9.11
2023-02-02T08:03:39.693Z,9.30
2023-02-02T08:06:13.036Z,9.38
2023-02-02T08:08:39.859Z,9.00
2023-02-02T08:11:09.254Z,9.28
2023-02-02T08:13:36.464Z,9.33
2023-02-02T08:16:03.327Z,9.10
2023-02-02T08:18:30.002Z,9.65
2023-02-02T08:21:00.944Z,9.77
2023-02-02T08:23:28.384Z,9.55
2023-02-02T08:26:05.947Z,10.13
2023-02-02T08:28:32.909Z,10.12
2023-02-02T08:31:07.777Z,9.84
2023-02-02T08:33:34.965Z,9.78
2023-02-02T08:36:02.180Z,10.07
2023-02-02T08:38:28.931Z,9.94
2023-02-02T08:40:55.879Z,10.23
2023-02-02T08:43:22.605Z,10.09
2023-02-02T08:46:01.722Z,10.37
2023-02-02T08:48:31.519Z,10.71
2023-02-02T08:50:59.297Z,10.26
2023-02-02T08:53:26.667Z,10.58
2023-02-02T08:56:04.954Z,11.17
2023-02-02T08:58:33.724Z,11.17
2023-02-02T09:01:06.300Z,11.13
2023-02-02T09:03:35.396Z,10.99
2023-02-02T09:06:07.396Z,11.69
2023-02-02T09:08:34.236Z,11.40
2023-02-02T09:11:05.199Z,11.96
2023-02-02T09:13:31.850Z,11.81
2023-02-02T09:16:02.976Z,11.92
2023-02-02T09:18:30.054Z,12.04
2023-02-02T09:21:00.893Z,12.36
2023-02-02T09:23:31.135Z,12.45
2023-02-02T09:25:57.870Z,11.90
2023-02-02T09:28:24.577Z,11.79
2023-02-02T09:30:51.516Z,12.05
2023-02-02T09:33:18.282Z,11.78
2023-02-02T09:35:45.027Z,12.07
2023-02-02T09:38:11.683Z,11.71
2023-02-02T09:40:40.647Z,12.01
2023-02-02T09:43:37.378Z,12.21
2023-02-02T09:46:32.633Z,12.00
2023-02-02T09:49:03.269Z,12.62
2023-02-02T09:51:36.374Z,12.27
2023-02-02T09:54:27.625Z,12.25
2023-02-02T09:56:57.276Z,12.46
2023-02-02T09:59:35.974Z,12.89
2023-02-02T10:02:17.571Z,12.74
2023-02-02T10:04:50.402Z,13.11
2023-02-02T10:07:23.769Z,12.23
2023-02-02T10:10:20.041Z,13.19
2023-02-02T10:12:58.750Z,12.61
2023-02-02T10:15:38.341Z,12.88
2023-02-02T10:18:13.411Z,13.25
2023-02-02T10:21:00.904Z,12.78
2023-02-02T10:23:29.226Z,13.02
2023-02-02T10:25:56.343Z,12.99
2023-02-02T10:28:39.644Z,13.00
2023-02-02T10:31:17.757Z,12.83
2023-02-02T10:33:57.337Z,12.71
2023-02-02T10:36:37.313Z,12.47
2023-02-02T10:39:16.485Z,12.20
2023-02-02T10:42:33.995Z,12.36
2023-02-02T10:45:10.874Z,12.10
2023-02-02T10:47:38.142Z,12.20
2023-02-02T10:50:19.620Z,11.95
2023-02-02T10:52:56.363Z,11.87
2023-02-02T10:55:37.807Z,12.16
2023-02-02T10:58:13.400Z,12.51
2023-02-02T11:00:52.606Z,12.65
2023-02-02T11:03:22.977Z,12.38
2023-02-02T11:06:08.663Z,12.23
2023-02-02T11:08:46.250Z,12.80
2023-02-02T11:11:20.738Z,12.38
2023-02-02T11:13:51.829Z,11.50
2023-02-02T11:16:21.398Z,11.55
2023-02-02T11:18:48.593Z,11.89
2023-02-02T11:21:35.179Z,11.46
2023-02-02T11:24:21.562Z,11.45
2023-02-02T11:26:57.377Z,11.21
2023-02-02T11:29:41.483Z,11.05
2023-02-02T11:32:29.972Z,11.03
2023-02-02T11:35:02.969Z,10.79
2023-02-02T11:37:37.770Z,10.94
2023-02-02T11:40:33.836Z,11.13
2023-02-02T11:43:16.964Z,10.95
2023-02-02T11:46:02.674Z,10.75
2023-02-02T11:48:38.542Z,10.70
2023-02-02T11:51:15.650Z,10.83
2023-02-02T11:53:49.038Z,11.03
2023-02-02T11:56:29.284Z,10.90
2023-02-02T11:59:01.159Z,11.23
2023-02-02T12:01:35.507Z,11.66
2023-02-02T12:04:32.668Z,11.54
2023-02-02T12:07:02.398Z,11.55
2023-02-02T12:09:36.905Z,11.75
2023-02-02T12:12:33.715Z,11.78
2023-02-02T12:15:33.929Z,12.14
2023-02-02T12:18:29.855Z,11.81
2023-02-02T12:21:36.237Z,11.89
2023-02-02T12:24:24.482Z,11.56
2023-02-02T12:27:20.401Z,11.46
2023-02-02T12:30:32.241Z,11.60
2023-02-02T12:33:19.106Z,11.78
2023-02-02T12:36:26.320Z,11.66
2023-02-02T12:39:00.858Z,11.71
2023-02-02T12:41:37.097Z,11.91
2023-02-02T12:44:31.624Z,11.82
2023-02-02T12:47:22.329Z,12.10
2023-02-02T12:50:32.281Z,11.91
2023-02-02T12:54:34.236Z,11.54
2023-02-02T12:57:24.164Z,11.56
2023-02-02T13:00:13.942Z,11.68
2023-02-02T13:03:54.751Z,11.31
2023-02-02T13:06:58.529Z,11.29
2023-02-02T13:09:49.142Z,11.49
2023-02-02T13:12:22.561Z,11.34
2023-02-02T13:15:13.612Z,11.78
2023-02-02T13:18:06.120Z,11.41
2023-02-02T13:20:56.053Z,11.43
2023-02-02T13:23:53.074Z,11.68
2023-02-02T13:26:39.641Z,11.89
2023-02-02T13:29:28.811Z,12.09
2023-02-02T13:32:50.693Z,11.91
2023-02-02T13:36:02.618Z,11.65
2023-02-02T13:38:56.641Z,11.89
2023-02-02T13:41:29.743Z,11.96
2023-02-02T13:44:33.358Z,12.22
2023-02-02T13:47:56.413Z,12.25
2023-02-02T13:51:03.237Z,11.75
2023-02-02T13:55:08.209Z,11.95
2023-02-02T13:58:43.876Z,11.57
2023-02-02T14:04:35.454Z,11.47
2023-02-02T14:08:09.404Z,11.28
2023-02-02T14:17:32.805Z,11.42
2023-02-02T14:21:00.919Z,11.47
2023-02-02T14:24:22.863Z,11.26
2023-02-02T14:27:23.118Z,11.18
2023-02-02T14:33:54.488Z,11.42
2023-02-02T14:36:45.829Z,11.54
2023-02-02T14:39:34.409Z,11.47
2023-02-02T14:42:36.660Z,10.98
2023-02-02T14:45:54.697Z,10.83
2023-02-02T14:48:47.434Z,10.76
2023-02-02T14:51:31.323Z,10.79
2023-02-02T14:54:14.938Z,10.72
2023-02-02T14:57:07.966Z,10.73
2023-02-02T15:02:38.296Z,10.91
2023-02-02T15:05:38.768Z,11.12
2023-02-02T15:12:39.487Z,11.08
2023-02-02T15:15:39.571Z,11.28
2023-02-02T15:18:25.638Z,10.83
2023-02-02T15:21:14.848Z,10.69
2023-02-02T15:24:00.455Z,10.73
2023-02-02T15:26:47.508Z,10.51
2023-02-02T15:29:34.548Z,10.51
2023-02-02T15:32:25.190Z,10.73
2023-02-02T15:35:01.916Z,10.51
2023-02-02T15:57:53.195Z,9.78
2023-02-02T16:04:16.708Z,9.61
2023-02-02T16:07:37.517Z,9.66
2023-02-02T16:14:55.716Z,9.52
2023-02-02T16:18:25.819Z,9.50
2023-02-02T16:22:04.334Z,9.67
2023-02-02T16:29:24.047Z,9.73
2023-02-02T16:33:20.273Z,9.56
2023-02-02T16:43:37.611Z,9.47
2023-02-02T16:50:43.448Z,9.54
2023-02-02T17:05:00.283Z,8.98
2023-02-02T17:12:14.338Z,9.28
2023-02-02T17:19:16.848Z,9.14
2023-02-02T17:22:10.352Z,8.97
2023-02-02T17:24:37.204Z,8.61
2023-02-02T17:27:04.615Z,8.96
2023-02-02T17:29:31.885Z,8.93
2023-02-02T17:31:58.757Z,9.03
2023-02-02T17:34:25.412Z,8.92
2023-02-02T17:36:54.192Z,9.11
2023-02-02T17:39:20.853Z,8.90
2023-02-02T17:41:48.679Z,8.86
2023-02-02T17:44:15.299Z,8.87
2023-02-02T17:46:42.379Z,8.76
2023-02-02T17:49:09.033Z,9.01
2023-02-02T17:51:41.149Z,9.03
2023-02-02T17:54:13.124Z,9.22
2023-02-02T17:56:40.787Z,9.03
2023-02-02T17:59:07.795Z,8.98
2023-02-02T18:01:39.163Z,9.06
2023-02-02T18:04:06.312Z,8.82
2023-02-02T18:06:33.127Z,8.83
2023-02-02T18:08:59.810Z,8.88
2023-02-02T18:11:26.581Z,8.79
2023-02-02T18:13:53.275Z,8.90
2023-02-02T18:16:20.615Z,9.01
2023-02-02T18:18:47.318Z,9.18
2023-02-02T18:21:14.270Z,9.01
2023-02-02T18:23:41.093Z,9.13
2023-02-02T18:26:17.570Z,9.12
2023-02-02T18:28:44.464Z,9.26
2023-02-02T18:31:13.915Z,9.32
2023-02-02T18:33:41.665Z,9.37
2023-02-02T18:36:11.765Z,9.44
2023-02-02T18:38:40.901Z,9.33
2023-02-02T18:41:07.994Z,9.64
2023-02-02T18:43:34.676Z,9.30
2023-02-02T18:46:07.305Z,9.40
2023-02-02T18:48:34.091Z,9.39
2023-02-02T18:51:06.069Z,9.28
2023-02-02T18:53:32.875Z,9.40
2023-02-02T18:56:03.514Z,9.47
2023-02-02T18:58:30.174Z,9.72
2023-02-02T19:00:56.898Z,9.30
2023-02-02T19:03:23.640Z,9.42
2023-02-02T19:06:08.771Z,9.33
2023-02-02T19:08:35.425Z,9.26
2023-02-02T19:11:11.579Z,9.33
2023-02-02T19:13:38.393Z,9.48
2023-02-02T19:16:15.729Z,9.70
2023-02-02T19:18:42.886Z,9.55
2023-02-02T19:21:13.077Z,9.48
2023-02-02T19:23:42.033Z,9.65
2023-02-02T19:26:23.024Z,9.83
2023-02-02T19:28:50.372Z,9.53
2023-02-02T19:31:17.886Z,9.34
2023-02-02T19:33:51.593Z,9.08
2023-02-02T19:36:21.046Z,8.90
2023-02-02T19:38:49.557Z,8.86
2023-02-02T19:41:25.047Z,9.00
2023-02-02T19:43:58.304Z,9.12
2023-02-02T19:46:27.707Z,9.10
2023-02-02T19:49:04.196Z,9.04
2023-02-02T19:51:39.514Z,8.85
2023-02-02T19:54:18.208Z,9.56
2023-02-02T19:56:44.817Z,9.29
2023-02-02T19:59:19.573Z,9.12
2023-02-02T20:01:50.468Z,9.33
2023-02-02T20:04:19.803Z,9.30
2023-02-02T20:06:58.543Z,9.12
2023-02-02T20:09:29.968Z,9.36
2023-02-02T20:11:57.347Z,9.52
2023-02-02T20:14:30.149Z,9.20
2023-02-02T20:17:14.176Z,9.12
2023-02-02T20:19:41.922Z,9.25
2023-02-02T20:22:28.316Z,9.39
2023-02-02T20:24:57.242Z,9.21
2023-02-02T20:27:27.633Z,9.16
2023-02-02T20:29:57.803Z,9.13
2023-02-02T20:32:40.090Z,9.09
2023-02-02T20:35:24.312Z,8.97
2023-02-02T20:37:51.357Z,9.12
2023-02-02T20:40:20.728Z,9.26
2023-02-02T20:42:48.725Z,8.93
2023-02-02T20:45:19.236Z,9.04
2023-02-02T20:47:45.996Z,8.97
2023-02-02T20:50:14.707Z,9.08
2023-02-02T20:52:41.825Z,9.29
2023-02-02T20:55:09.719Z,9.23
2023-02-02T20:57:38.523Z,9.07
2023-02-02T21:00:08.432Z,9.38
2023-02-02T21:02:35.180Z,9.12
2023-02-02T21:05:01.919Z,9.15
2023-02-02T21:07:28.940Z,9.10
2023-02-02T21:09:55.683Z,9.32
2023-02-02T21:12:25.462Z,9.37
2023-02-02T21:14:53.890Z,9.54
2023-02-02T21:17:20.674Z,9.58
2023-02-02T21:19:47.508Z,9.28
2023-02-02T21:22:14.444Z,9.24
2023-02-02T21:24:41.340Z,9.09
2023-02-02T21:27:09.041Z,9.32
2023-02-02T21:29:36.105Z,9.38
2023-02-02T21:32:04.144Z,9.66
2023-02-02T21:34:31.239Z,9.40
2023-02-02T21:36:58.659Z,9.56
2023-02-02T21:39:34.845Z,9.80
2023-02-02T21:42:12.839Z,9.71
2023-02-02T21:45:07.532Z,9.38
2023-02-02T21:47:37.041Z,9.86
2023-02-02T21:50:17.714Z,9.64
2023-02-02T21:52:44.768Z,9.46
2023-02-02T21:55:29.544Z,9.55
2023-02-02T21:57:58.600Z,9.76
2023-02-02T22:00:30.862Z,9.90
2023-02-02T22:02:58.961Z,9.45
2023-02-02T22:05:36.855Z,9.75
2023-02-02T22:08:19.743Z,9.84
2023-02-02T22:10:47.644Z,9.70
2023-02-02T22:13:17.003Z,9.57
2023-02-02T22:15:48.154Z,9.60
2023-02-02T22:18:24.490Z,9.67
2023-02-02T22:20:52.615Z,9.39
2023-02-02T22:23:27.468Z,9.48
2023-02-02T22:25:56.058Z,8.99
2023-02-02T22:28:24.276Z,9.33
2023-02-02T22:30:52.681Z,9.58
2023-02-02T22:33:20.124Z,9.46
2023-02-02T22:35:47.261Z,9.57
2023-02-02T22:38:22.300Z,9.50
2023-02-02T22:40:50.496Z,9.17
2023-02-02T22:43:19.046Z,9.11
2023-02-02T22:45:46.304Z,9.14
2023-02-02T22:48:14.550Z,8.88
2023-02-02T22:50:41.900Z,9.08
2023-02-02T22:53:08.643Z,9.33
2023-02-02T22:55:35.415Z,9.67
2023-02-02T22:58:02.117Z,9.11
2023-02-02T23:00:32.258Z,9.05
2023-02-02T23:02:59.471Z,9.32
2023-02-02T23:05:27.550Z,9.30
2023-02-02T23:07:54.820Z,9.12
2023-02-02T23:10:24.966Z,9.41
2023-02-02T23:12:53.936Z,9.48
2023-02-02T23:15:21.093Z,9.19
2023-02-02T23:17:48.256Z,9.33
2023-02-02T23:20:15.957Z,9.44
2023-02-02T23:22:42.947Z,9.31
2023-02-02T23:25:18.372Z,9.14
2023-02-02T23:28:05.174Z,9.52
2023-02-02T23:31:05.390Z,9.69
2023-02-02T23:33:53.705Z,9.33
2023-02-02T23:36:53.588Z,9.63
2023-02-02T23:39:32.273Z,9.30
2023-02-02T23:42:33.209Z,9.32
2023-02-02T23:45:34.844Z,9.51
2023-02-02T23:48:17.369Z,9.44
2023-02-02T23:50:56.443Z,9.05
2023-02-02T23:53:28.767Z,9.42
2023-02-02T23:55:55.674Z,9.34
2023-02-02T23:58:22.326Z,9.47
